createdAt,value
2018-09-17T00:01:23.468Z,7.83
2018-09-17T00:03:51.609Z,5.08
2018-09-17T00:06:19.617Z,5.78
2018-09-17T00:08:54.463Z,4.95
2018-09-17T00:11:22.487Z,8.95
2018-09-17T00:13:50.503Z,6.97
2018-09-17T00:16:18.571Z,9.33
2018-09-17T00:18:46.630Z,5.47
2018-09-17T00:21:14.680Z,6.92
2018-09-17T00:23:42.829Z,8.90
2018-09-17T00:26:10.878Z,14.90
2018-09-17T00:28:38.950Z,7.05
2018-09-17T00:31:07.415Z,13.68
2018-09-17T00:33:35.520Z,7.22
2018-09-17T00:36:03.800Z,6.92
2018-09-17T00:38:31.856Z,7.03
2018-09-17T00:40:59.904Z,8.55
2018-09-17T00:43:27.929Z,8.18
2018-09-17T00:45:55.968Z,7.37
2018-09-17T00:48:24.024Z,10.93
2018-09-17T00:50:52.103Z,10.08
2018-09-17T00:53:20.377Z,7.35
2018-09-17T00:55:48.410Z,7.42
2018-09-17T00:58:16.436Z,8.28
2018-09-17T01:00:44.478Z,7.67
2018-09-17T01:03:12.491Z,7.50
2018-09-17T01:05:40.516Z,9.35
2018-09-17T01:08:08.969Z,7.45
2018-09-17T01:10:36.991Z,9.13
2018-09-17T01:13:05.010Z,8.55
2018-09-17T01:15:33.231Z,11.55
2018-09-17T01:18:01.250Z,7.03
2018-09-17T01:20:29.282Z,9.50
2018-09-17T01:22:57.431Z,6.28
2018-09-17T01:25:25.457Z,11.25
2018-09-17T01:27:53.522Z,10.63
2018-09-17T01:30:21.771Z,7.53
2018-09-17T01:32:50.069Z,6.97
2018-09-17T01:35:18.120Z,6.65
2018-09-17T01:37:46.465Z,8.88
2018-09-17T01:40:14.552Z,8.20
2018-09-17T01:42:42.698Z,7.65
2018-09-17T01:45:11.002Z,13.00
2018-09-17T01:47:39.040Z,15.08
2018-09-17T01:50:07.365Z,8.68
2018-09-17T01:52:35.507Z,11.33
2018-09-17T01:55:03.543Z,6.28
2018-09-17T01:57:31.651Z,7.00
2018-09-17T01:59:59.687Z,7.47
2018-09-17T02:02:27.708Z,7.80
2018-09-17T02:04:55.848Z,8.03
2018-09-17T02:07:23.987Z,7.67
2018-09-17T02:09:52.074Z,9.23
2018-09-17T02:12:20.099Z,8.15
2018-09-17T02:14:48.480Z,9.85
2018-09-17T02:17:16.511Z,9.25
2018-09-17T02:19:44.555Z,9.93
2018-09-17T02:22:12.766Z,7.08
2018-09-17T02:24:40.776Z,11.08
2018-09-17T02:27:08.800Z,7.92
2018-09-17T02:29:36.862Z,8.55
2018-09-17T02:32:04.879Z,8.65
2018-09-17T02:34:33.139Z,7.10
2018-09-17T02:37:01.279Z,10.00
2018-09-17T02:39:29.329Z,10.40
2018-09-17T02:41:57.359Z,11.90
2018-09-17T02:44:25.657Z,8.40
2018-09-17T02:46:53.691Z,10.38
2018-09-17T02:49:21.711Z,10.65
2018-09-17T02:51:49.842Z,8.13
2018-09-17T02:54:17.991Z,8.95
2018-09-17T02:56:46.062Z,7.33
2018-09-17T02:59:14.100Z,8.85
2018-09-17T03:01:42.148Z,8.95
2018-09-17T03:04:10.233Z,9.58
2018-09-17T03:06:38.473Z,11.53
2018-09-17T03:09:08.089Z,8.73
2018-09-17T03:11:36.234Z,10.95
2018-09-17T03:14:04.296Z,10.88
2018-09-17T03:16:32.354Z,16.07
2018-09-17T03:19:00.519Z,9.08
2018-09-17T03:21:28.537Z,8.88
2018-09-17T03:23:56.607Z,9.25
2018-09-17T03:26:24.699Z,15.75
2018-09-17T03:28:52.946Z,10.15
2018-09-17T03:31:21.024Z,11.08
2018-09-17T03:36:48.090Z,12.80
2018-09-17T03:39:16.253Z,9.28
2018-09-17T03:41:44.278Z,9.95
2018-09-17T03:44:12.319Z,10.82
2018-09-17T03:46:40.665Z,9.00
2018-09-17T03:49:08.663Z,11.97
2018-09-17T03:51:36.767Z,15.72
2018-09-17T03:54:04.884Z,11.08
2018-09-17T03:56:32.870Z,10.90
2018-09-17T03:59:00.918Z,17.27
2018-09-17T04:01:28.999Z,11.97
2018-09-17T04:03:56.990Z,7.25
2018-09-17T04:06:24.989Z,9.60
2018-09-17T04:08:53.460Z,10.72
2018-09-17T04:11:21.687Z,8.33
2018-09-17T04:13:49.715Z,14.95
2018-09-17T04:16:18.043Z,9.78
2018-09-17T04:18:46.159Z,8.23
2018-09-17T04:21:14.198Z,11.08
2018-09-17T04:23:42.262Z,10.90
2018-09-17T04:26:11.445Z,14.90
2018-09-17T04:28:39.827Z,14.73
2018-09-17T04:31:07.861Z,11.03
2018-09-17T04:33:37.710Z,9.70
2018-09-17T04:36:05.852Z,15.20
2018-09-17T04:38:34.258Z,14.80
2018-09-17T04:41:02.473Z,12.40
2018-09-17T04:43:30.712Z,12.27
2018-09-17T04:45:58.998Z,14.00
2018-09-17T04:48:27.292Z,9.37
2018-09-17T04:50:55.535Z,11.57
2018-09-17T04:53:23.656Z,12.57
2018-09-17T04:55:51.727Z,14.40
2018-09-17T04:58:20.266Z,8.83
2018-09-17T05:00:48.585Z,10.85
2018-09-17T05:03:16.701Z,10.32
2018-09-17T05:05:44.767Z,12.03
2018-09-17T05:08:13.144Z,18.50
2018-09-17T05:10:41.196Z,9.35
2018-09-17T05:13:09.414Z,7.95
2018-09-17T05:15:37.477Z,8.53
2018-09-17T05:18:05.537Z,9.05
2018-09-17T05:20:33.596Z,10.68
2018-09-17T05:23:01.630Z,10.53
2018-09-17T05:25:29.791Z,7.35
2018-09-17T05:27:57.997Z,7.58
2018-09-17T05:30:26.043Z,7.75
2018-09-17T05:32:54.191Z,10.70
2018-09-17T05:35:22.230Z,13.58
2018-09-17T05:37:50.254Z,8.73
2018-09-17T05:40:18.410Z,6.20
2018-09-17T05:42:46.829Z,7.17
2018-09-17T05:45:15.005Z,9.45
2018-09-17T05:47:43.030Z,6.80
2018-09-17T05:50:11.098Z,5.92
2018-09-17T05:52:39.122Z,9.50
2018-09-17T05:55:07.222Z,6.00
2018-09-17T05:57:35.272Z,7.95
2018-09-17T06:00:03.294Z,15.40
2018-09-17T06:02:31.379Z,5.62
2018-09-17T06:04:59.520Z,12.03
2018-09-17T06:07:27.626Z,8.93
2018-09-17T06:09:55.769Z,12.58
2018-09-17T06:12:23.974Z,13.98
2018-09-17T06:14:52.019Z,12.18
2018-09-17T06:17:20.107Z,8.45
2018-09-17T06:19:48.161Z,12.85
2018-09-17T06:22:16.218Z,6.85
2018-09-17T06:24:44.295Z,6.87
2018-09-17T06:27:12.520Z,11.95
2018-09-17T06:29:40.654Z,10.05
2018-09-17T06:32:08.716Z,11.43
2018-09-17T06:34:36.986Z,12.95
2018-09-17T06:37:05.014Z,8.43
2018-09-17T06:39:33.022Z,11.93
2018-09-17T06:42:01.832Z,12.58
2018-09-17T06:44:29.899Z,9.20
2018-09-17T06:46:57.959Z,19.55
2018-09-17T06:49:26.095Z,8.93
2018-09-17T06:51:54.099Z,8.10
2018-09-17T06:54:22.186Z,16.77
2018-09-17T06:56:50.300Z,13.70
2018-09-17T06:59:18.416Z,10.13
2018-09-17T07:01:46.632Z,8.90
2018-09-17T07:04:14.699Z,7.00
2018-09-17T07:06:42.956Z,8.15
2018-09-17T07:09:11.927Z,16.00
2018-09-17T07:11:39.933Z,7.95
2018-09-17T07:14:08.281Z,5.50
2018-09-17T07:16:36.433Z,9.45
2018-09-17T07:19:04.473Z,4.78
2018-09-17T07:21:32.954Z,10.45
2018-09-17T07:24:01.435Z,6.53
2018-09-17T07:26:29.797Z,6.60
2018-09-17T07:28:58.781Z,3.90
2018-09-17T07:31:27.037Z,4.95
2018-09-17T07:33:55.111Z,5.25
2018-09-17T07:36:23.253Z,11.43
2018-09-17T07:38:51.298Z,7.62
2018-09-17T07:41:19.346Z,5.37
2018-09-17T07:43:48.075Z,11.18
2018-09-17T07:46:16.288Z,11.22
2018-09-17T07:48:44.334Z,15.18
2018-09-17T07:51:12.354Z,14.45
2018-09-17T07:53:40.522Z,6.58
2018-09-17T07:56:08.561Z,8.93
2018-09-17T07:58:36.639Z,8.40
2018-09-17T08:01:04.910Z,8.78
2018-09-17T08:03:32.967Z,5.97
2018-09-17T08:06:01.081Z,8.37
2018-09-17T08:08:29.113Z,5.15
2018-09-17T08:10:57.278Z,12.35
2018-09-17T08:13:25.279Z,5.35
2018-09-17T08:15:53.576Z,4.20
2018-09-17T08:18:21.630Z,5.83
2018-09-17T08:20:49.680Z,3.60
2018-09-17T08:23:17.971Z,9.00
2018-09-17T08:25:46.042Z,7.47
2018-09-17T08:28:14.120Z,9.00
2018-09-17T08:30:42.618Z,10.75
2018-09-17T08:33:10.763Z,8.28
2018-09-17T08:35:38.882Z,7.97
2018-09-17T08:38:07.192Z,9.10
2018-09-17T08:40:35.313Z,6.53
2018-09-17T08:43:03.363Z,23.05
2018-09-17T08:45:31.903Z,7.73
2018-09-17T08:47:59.911Z,5.60
2018-09-17T08:50:27.962Z,7.40
2018-09-17T08:52:56.082Z,7.92
2018-09-17T08:55:29.442Z,7.20
2018-09-17T08:58:03.090Z,6.92
2018-09-17T09:00:36.674Z,8.45
2018-09-17T09:03:10.674Z,3.40
2018-09-17T09:05:42.938Z,7.45
2018-09-17T09:11:25.930Z,7.55
2018-09-17T09:13:56.095Z,2.83
2018-09-17T09:16:24.902Z,4.25
2018-09-17T09:18:52.954Z,6.37
2018-09-17T09:21:20.967Z,4.70
2018-09-17T09:23:50.788Z,4.15
2018-09-17T09:26:18.847Z,4.87
2018-09-17T09:28:46.870Z,3.70
2018-09-17T09:31:15.354Z,2.20
2018-09-17T09:33:43.369Z,5.55
2018-09-17T09:36:11.374Z,2.98
2018-09-17T09:38:39.419Z,8.90
2018-09-17T09:41:07.502Z,6.03
2018-09-17T09:43:35.731Z,2.90
2018-09-17T09:46:03.762Z,7.85
2018-09-17T09:48:31.779Z,5.17
2018-09-17T09:50:59.926Z,3.75
2018-09-17T09:53:27.981Z,5.15
2018-09-17T09:55:56.014Z,6.45
2018-09-17T09:58:24.150Z,5.37
2018-09-17T10:00:57.640Z,3.50
2018-09-17T10:03:31.081Z,2.42
2018-09-17T10:05:59.110Z,3.12
2018-09-17T10:08:27.101Z,5.97
2018-09-17T10:11:00.702Z,17.55
2018-09-17T10:13:34.170Z,5.78
2018-09-17T10:16:07.767Z,7.05
2018-09-17T10:18:41.295Z,6.90
2018-09-17T10:21:09.866Z,11.18
2018-09-17T10:23:37.990Z,2.62
2018-09-17T10:26:06.059Z,4.15
2018-09-17T10:28:34.266Z,3.98
2018-09-17T10:31:02.408Z,4.42
2018-09-17T10:33:30.623Z,2.50
2018-09-17T10:35:58.812Z,8.58
2018-09-17T10:38:27.024Z,2.83
2018-09-17T10:40:55.078Z,4.25
2018-09-17T10:43:23.149Z,4.25
2018-09-17T10:45:51.216Z,2.92
2018-09-17T10:48:19.297Z,1.52
2018-09-17T10:50:47.440Z,9.48
2018-09-17T10:53:15.599Z,9.40
2018-09-17T10:55:43.663Z,5.53
2018-09-17T10:58:11.739Z,5.17
2018-09-17T11:00:39.866Z,5.37
2018-09-17T11:03:07.936Z,9.85
2018-09-17T11:05:36.363Z,2.62
2018-09-17T11:08:05.304Z,7.62
2018-09-17T11:10:33.522Z,1.75
2018-09-17T11:13:01.620Z,3.17
2018-09-17T11:15:35.123Z,6.75
2018-09-17T11:18:03.407Z,1.77
2018-09-17T11:20:31.465Z,4.75
2018-09-17T11:22:59.538Z,5.20
2018-09-17T11:25:27.581Z,1.97
2018-09-17T11:27:55.623Z,3.63
2018-09-17T11:30:23.664Z,3.80
2018-09-17T11:32:52.228Z,3.77
2018-09-17T11:35:20.287Z,4.33
2018-09-17T11:37:48.611Z,4.17
2018-09-17T11:40:16.671Z,1.70
2018-09-17T11:42:44.726Z,3.02
2018-09-17T11:45:12.783Z,3.73
2018-09-17T11:47:40.847Z,8.60
2018-09-17T11:50:08.972Z,1.77
2018-09-17T11:52:36.977Z,4.83
2018-09-17T11:55:05.009Z,4.40
2018-09-17T11:57:33.018Z,2.58
2018-09-17T12:00:00.999Z,2.65
2018-09-17T12:02:35.689Z,1.77
2018-09-17T12:05:08.853Z,7.12
2018-09-17T12:07:41.119Z,1.95
2018-09-17T12:10:09.674Z,2.15
2018-09-17T12:12:38.352Z,2.52
2018-09-17T12:15:06.679Z,4.90
2018-09-17T12:17:35.247Z,2.37
2018-09-17T12:20:03.417Z,3.98
2018-09-17T12:22:31.561Z,5.65
2018-09-17T12:24:59.630Z,4.33
2018-09-17T12:27:27.633Z,2.80
2018-09-17T12:29:55.662Z,3.22
2018-09-17T12:32:23.683Z,7.97
2018-09-17T12:34:51.715Z,4.28
2018-09-17T12:37:19.942Z,12.40
2018-09-17T12:39:47.986Z,6.62
2018-09-17T12:42:16.014Z,2.62
2018-09-17T12:44:44.109Z,2.00
2018-09-17T12:47:12.275Z,3.08
2018-09-17T12:49:40.507Z,3.83
2018-09-17T12:52:08.934Z,3.12
2018-09-17T12:54:36.981Z,2.70
2018-09-17T12:57:05.030Z,4.30
2018-09-17T12:59:33.069Z,4.83
2018-09-17T13:02:01.223Z,3.40
2018-09-17T13:04:29.254Z,3.90
2018-09-17T13:06:57.282Z,8.95
2018-09-17T13:09:25.967Z,3.27
2018-09-17T13:11:54.016Z,2.60
2018-09-17T13:14:22.146Z,7.05
2018-09-17T13:16:50.161Z,5.17
2018-09-17T13:19:18.141Z,3.33
2018-09-17T13:21:46.328Z,2.05
2018-09-17T13:24:14.351Z,4.95
2018-09-17T13:26:42.357Z,3.55
2018-09-17T13:29:10.921Z,7.92
2018-09-17T13:31:38.956Z,3.95
2018-09-17T13:34:06.951Z,3.52
2018-09-17T13:36:35.183Z,4.30
2018-09-17T13:39:03.414Z,3.22
2018-09-17T13:41:31.486Z,2.50
2018-09-17T13:43:59.586Z,3.15
2018-09-17T13:46:27.624Z,1.82
2018-09-17T13:48:55.715Z,3.25
2018-09-17T13:51:23.776Z,3.55
2018-09-17T13:53:51.829Z,2.12
2018-09-17T13:56:19.823Z,5.25
2018-09-17T13:58:48.620Z,8.38
2018-09-17T14:01:16.667Z,3.15
2018-09-17T14:03:44.670Z,2.90
2018-09-17T14:06:13.581Z,2.67
2018-09-17T14:08:41.661Z,9.73
2018-09-17T14:11:09.898Z,6.50
2018-09-17T14:13:37.975Z,7.15
2018-09-17T14:16:07.039Z,4.55
2018-09-17T14:18:35.316Z,2.62
2018-09-17T14:21:03.366Z,6.65
2018-09-17T14:23:31.560Z,10.03
2018-09-17T14:25:59.659Z,5.85
2018-09-17T14:28:27.710Z,10.50
2018-09-17T14:30:55.750Z,5.03
2018-09-17T14:33:29.325Z,1.27
2018-09-17T14:35:57.349Z,2.02
2018-09-17T14:38:25.628Z,3.33
2018-09-17T14:40:54.016Z,2.37
2018-09-17T14:43:22.160Z,2.55
2018-09-17T14:45:50.143Z,4.08
2018-09-17T14:48:18.627Z,7.87
2018-09-17T14:50:46.685Z,2.52
2018-09-17T14:53:14.770Z,3.85
2018-09-17T14:55:42.810Z,4.85
2018-09-17T14:58:11.516Z,4.30
2018-09-17T15:00:39.494Z,1.70
2018-09-17T15:03:07.528Z,5.30
2018-09-17T15:05:35.541Z,1.45
2018-09-17T15:08:03.702Z,5.92
2018-09-17T15:10:32.212Z,1.32
2018-09-17T15:13:00.150Z,4.78
2018-09-17T15:15:28.248Z,7.30
2018-09-17T15:17:56.238Z,3.47
2018-09-17T15:20:24.337Z,3.65
2018-09-17T15:22:52.349Z,1.40
2018-09-17T15:25:20.737Z,7.37
2018-09-17T15:27:48.940Z,7.97
2018-09-17T15:30:17.014Z,3.47
2018-09-17T15:32:45.099Z,2.87
2018-09-17T15:35:13.128Z,4.42
2018-09-17T15:37:41.170Z,12.03
2018-09-17T15:40:09.309Z,9.60
2018-09-17T15:42:37.328Z,4.95
2018-09-17T15:45:05.485Z,9.30
2018-09-17T15:47:33.969Z,11.95
2018-09-17T15:50:02.154Z,3.62
2018-09-17T15:52:30.345Z,5.15
2018-09-17T15:54:58.434Z,4.28
2018-09-17T15:57:26.933Z,5.60
2018-09-17T15:59:55.104Z,2.08
2018-09-17T16:02:23.463Z,9.85
2018-09-17T16:04:51.520Z,2.98
2018-09-17T16:07:19.627Z,7.70
2018-09-17T16:09:47.853Z,6.00
2018-09-17T16:12:15.857Z,5.67
2018-09-17T16:14:44.602Z,10.18
2018-09-17T16:17:12.711Z,14.87
2018-09-17T16:19:40.712Z,9.70
2018-09-17T16:24:59.223Z,14.40
2018-09-17T16:27:27.590Z,3.90
2018-09-17T16:29:55.598Z,5.60
2018-09-17T16:32:23.631Z,5.20
2018-09-17T16:34:51.807Z,11.30
2018-09-17T16:37:19.795Z,3.25
2018-09-17T16:39:47.822Z,3.98
2018-09-17T16:42:15.827Z,4.92
2018-09-17T16:44:43.856Z,11.18
2018-09-17T16:47:12.099Z,5.17
2018-09-17T16:49:40.013Z,14.18
2018-09-17T16:52:08.092Z,12.20
2018-09-17T16:54:36.660Z,93.70
2018-09-17T16:57:04.697Z,95.87
2018-09-17T16:59:32.763Z,69.50
2018-09-17T17:02:00.839Z,65.10
2018-09-17T17:04:28.878Z,54.30
2018-09-17T17:06:56.911Z,50.05
2018-09-17T17:09:24.961Z,21.17
2018-09-17T17:11:53.169Z,28.98
2018-09-17T17:14:21.134Z,27.42
2018-09-17T17:16:49.710Z,18.60
2018-09-17T17:19:17.842Z,16.45
2018-09-17T17:21:45.901Z,25.43
2018-09-17T17:24:14.143Z,10.63
2018-09-17T17:26:42.357Z,20.52
2018-09-17T17:29:10.797Z,21.07
2018-09-17T17:31:38.847Z,16.12
2018-09-17T17:34:06.905Z,19.80
2018-09-17T17:36:35.184Z,13.22
2018-09-17T17:39:03.307Z,13.05
2018-09-17T17:41:31.391Z,7.83
2018-09-17T17:43:59.453Z,17.82
2018-09-17T17:46:28.010Z,17.87
2018-09-17T17:48:55.943Z,12.95
2018-09-17T17:51:24.028Z,16.00
2018-09-17T17:53:52.224Z,13.30
2018-09-17T17:56:20.338Z,20.72
2018-09-17T17:58:48.363Z,13.28
2018-09-17T18:01:16.487Z,16.80
2018-09-17T18:03:44.494Z,11.50
2018-09-17T18:06:12.491Z,13.60
2018-09-17T18:08:40.535Z,14.73
2018-09-17T18:11:08.568Z,14.07
2018-09-17T18:13:36.742Z,17.82
2018-09-17T18:16:05.176Z,17.45
2018-09-17T18:18:33.192Z,15.70
2018-09-17T18:21:01.231Z,17.98
2018-09-17T18:23:29.298Z,14.20
2018-09-17T18:25:57.310Z,13.65
2018-09-17T18:28:25.319Z,11.75
2018-09-17T18:30:53.607Z,15.90
2018-09-17T18:33:21.757Z,15.72
2018-09-17T18:35:49.745Z,25.77
2018-09-17T18:38:17.810Z,14.13
2018-09-17T18:40:45.858Z,18.05
2018-09-17T18:43:13.866Z,16.52
2018-09-17T18:45:42.078Z,19.23
2018-09-17T18:48:10.121Z,18.50
2018-09-17T18:50:38.126Z,18.42
2018-09-17T18:53:06.475Z,17.98
2018-09-17T18:55:34.519Z,19.37
2018-09-17T18:58:02.592Z,13.93
2018-09-17T19:00:30.668Z,15.70
2018-09-17T19:02:58.884Z,19.92
2018-09-17T19:05:26.831Z,22.77
2018-09-17T19:07:54.878Z,13.15
2018-09-17T19:10:22.858Z,16.62
2018-09-17T19:12:50.884Z,14.00
2018-09-17T19:15:24.247Z,15.05
2018-09-17T19:17:52.400Z,22.02
2018-09-17T19:20:20.619Z,14.05
2018-09-17T19:24:16.552Z,15.32
2018-09-17T19:26:44.566Z,20.65
2018-09-17T19:29:19.298Z,16.15
2018-09-17T19:31:47.894Z,26.95
2018-09-17T19:34:16.170Z,18.48
2018-09-17T19:36:44.840Z,14.63
2018-09-17T19:39:18.272Z,17.45
2018-09-17T19:41:46.434Z,12.73
2018-09-17T19:44:14.434Z,14.18
2018-09-17T19:46:42.432Z,19.48
2018-09-17T19:49:11.195Z,18.90
2018-09-17T19:51:44.706Z,23.90
2018-09-17T19:54:12.824Z,19.50
2018-09-17T19:56:40.849Z,20.48
2018-09-17T19:59:14.335Z,20.82
2018-09-17T20:01:42.362Z,23.87
2018-09-17T20:04:15.824Z,17.07
2018-09-17T20:06:44.077Z,18.85
2018-09-17T20:09:12.297Z,16.02
2018-09-17T20:11:40.766Z,18.50
2018-09-17T20:14:08.802Z,21.50
2018-09-17T20:16:36.835Z,16.45
2018-09-17T20:19:04.912Z,13.38
2018-09-17T20:21:33.058Z,14.75
2018-09-17T20:24:01.106Z,19.82
2018-09-17T20:26:29.154Z,16.25
2018-09-17T20:28:57.199Z,15.48
2018-09-17T20:31:25.211Z,14.87
2018-09-17T20:33:53.973Z,20.43
2018-09-17T20:36:22.042Z,19.55
2018-09-17T20:38:50.090Z,17.10
2018-09-17T20:41:18.135Z,15.68
2018-09-17T20:43:46.208Z,16.50
2018-09-17T20:46:14.253Z,16.67
2018-09-17T20:48:42.329Z,18.33
2018-09-17T20:51:10.910Z,14.67
2018-09-17T20:53:38.928Z,11.90
2018-09-17T20:56:07.056Z,14.75
2018-09-17T20:58:35.052Z,18.40
2018-09-17T21:01:03.158Z,19.33
2018-09-17T21:03:31.111Z,17.07
2018-09-17T21:05:59.125Z,18.13
2018-09-17T21:08:27.167Z,17.50
2018-09-17T21:10:55.252Z,15.30
2018-09-17T21:13:24.181Z,13.20
2018-09-17T21:15:52.146Z,14.30
2018-09-17T21:18:20.477Z,11.93
2018-09-17T21:20:48.530Z,13.18
2018-09-17T21:23:16.560Z,25.90
2018-09-17T21:25:44.649Z,17.77
2018-09-17T21:28:12.692Z,12.90
2018-09-17T21:30:40.714Z,19.25
2018-09-17T21:33:08.764Z,13.38
2018-09-17T21:35:36.935Z,11.45
2018-09-17T21:38:05.007Z,18.10
2018-09-17T21:40:33.073Z,18.45
2018-09-17T21:43:01.096Z,15.45
2018-09-17T21:45:29.110Z,13.08
2018-09-17T21:47:57.494Z,13.28
2018-09-17T21:50:25.511Z,15.72
2018-09-17T21:52:53.575Z,17.32
2018-09-17T21:55:21.727Z,13.70
2018-09-17T21:57:49.778Z,13.95
2018-09-17T22:00:18.856Z,12.82
2018-09-17T22:02:47.103Z,15.28
2018-09-17T22:05:15.130Z,23.05
2018-09-17T22:07:43.154Z,15.70
2018-09-17T22:10:11.219Z,17.45
2018-09-17T22:12:39.238Z,17.75
2018-09-17T22:15:07.254Z,13.72
2018-09-17T22:17:35.295Z,19.60
2018-09-17T22:20:03.307Z,18.82
2018-09-17T22:22:31.523Z,14.90
2018-09-17T22:24:59.994Z,22.40
2018-09-17T22:27:28.007Z,14.40
2018-09-17T22:29:56.043Z,18.70
2018-09-17T22:32:24.109Z,12.37
2018-09-17T22:34:52.119Z,15.72
2018-09-17T22:37:20.351Z,12.53
2018-09-17T22:39:48.373Z,11.50
2018-09-17T22:42:16.621Z,15.38
2018-09-17T22:44:44.770Z,11.57
2018-09-17T22:47:12.907Z,14.33
2018-09-17T22:49:40.938Z,13.35
2018-09-17T22:52:08.978Z,13.93
2018-09-17T22:54:37.739Z,16.77
2018-09-17T22:57:06.705Z,11.83
2018-09-17T22:59:34.724Z,12.85
2018-09-17T23:02:03.387Z,15.28
2018-09-17T23:04:31.402Z,12.47
2018-09-17T23:06:59.455Z,13.98
2018-09-17T23:09:27.491Z,13.95
2018-09-17T23:11:55.506Z,11.43
2018-09-17T23:14:23.584Z,9.65
2018-09-17T23:16:51.631Z,8.33
2018-09-17T23:19:19.630Z,7.08
2018-09-17T23:21:47.680Z,14.55
2018-09-17T23:24:15.724Z,11.35
2018-09-17T23:26:43.754Z,11.10
2018-09-17T23:29:11.814Z,12.37
2018-09-17T23:31:39.974Z,11.08
2018-09-17T23:34:08.039Z,20.02
2018-09-17T23:36:36.114Z,17.75
2018-09-17T23:39:08.080Z,13.85
2018-09-17T23:41:36.247Z,10.72
2018-09-17T23:44:04.275Z,11.18
2018-09-17T23:46:32.315Z,17.57
2018-09-17T23:49:01.207Z,10.70
2018-09-17T23:51:29.263Z,10.98
2018-09-17T23:53:57.734Z,9.30
2018-09-17T23:56:25.799Z,12.03
2018-09-17T23:58:53.829Z,8.53
